sensor_id;sensor_type;location;lat;lon;timestamp;P1;durP1;ratioP1;P2;durP2;ratioP2
74959;SDS011;63518;49.572;1.106;2022-12-08T00:01:55;7.85;;;4.25;;
74959;SDS011;63518;49.572;1.106;2022-12-08T00:04:25;6.70;;;3.10;;
74959;SDS011;63518;49.572;1.106;2022-12-08T00:06:52;6.95;;;3.13;;
74959;SDS011;63518;49.572;1.106;2022-12-08T00:09:39;7.72;;;3.05;;
74959;SDS011;63518;49.572;1.106;2022-12-08T00:12:10;7.97;;;4.40;;
74959;SDS011;63518;49.572;1.106;2022-12-08T00:14:53;7.07;;;3.50;;
74959;SDS011;63518;49.572;1.106;2022-12-08T00:17:24;9.20;;;3.97;;
74959;SDS011;63518;49.572;1.106;2022-12-08T00:19:54;8.20;;;3.47;;
74959;SDS011;63518;49.572;1.106;2022-12-08T00:22:25;8.00;;;4.32;;
74959;SDS011;63518;49.572;1.106;2022-12-08T00:24:57;7.15;;;3.42;;
74959;SDS011;63518;49.572;1.106;2022-12-08T00:27:27;8.93;;;4.75;;
74959;SDS011;63518;49.572;1.106;2022-12-08T00:29:55;12.50;;;5.65;;
74959;SDS011;63518;49.572;1.106;2022-12-08T00:32:28;10.25;;;5.05;;
74959;SDS011;63518;49.572;1.106;2022-12-08T00:34:56;8.55;;;4.38;;
74959;SDS011;63518;49.572;1.106;2022-12-08T00:37:25;10.75;;;5.40;;
74959;SDS011;63518;49.572;1.106;2022-12-08T00:40:05;12.23;;;5.45;;
74959;SDS011;63518;49.572;1.106;2022-12-08T00:42:40;9.40;;;4.93;;
74959;SDS011;63518;49.572;1.106;2022-12-08T00:45:07;11.00;;;4.68;;
74959;SDS011;63518;49.572;1.106;2022-12-08T00:47:36;10.43;;;4.72;;
74959;SDS011;63518;49.572;1.106;2022-12-08T00:50:06;9.93;;;4.75;;
74959;SDS011;63518;49.572;1.106;2022-12-08T00:53:04;9.50;;;4.38;;
74959;SDS011;63518;49.572;1.106;2022-12-08T00:55:31;10.65;;;5.03;;
74959;SDS011;63518;49.572;1.106;2022-12-08T00:58:11;6.82;;;3.45;;
74959;SDS011;63518;49.572;1.106;2022-12-08T01:00:44;6.97;;;3.25;;
74959;SDS011;63518;49.572;1.106;2022-12-08T01:03:24;8.57;;;3.25;;
74959;SDS011;63518;49.572;1.106;2022-12-08T01:05:54;6.97;;;3.92;;
74959;SDS011;63518;49.572;1.106;2022-12-08T01:08:29;11.60;;;4.80;;
74959;SDS011;63518;49.572;1.106;2022-12-08T01:11:03;7.32;;;3.60;;
74959;SDS011;63518;49.572;1.106;2022-12-08T01:13:41;6.20;;;3.10;;
74959;SDS011;63518;49.572;1.106;2022-12-08T01:19:23;9.05;;;4.80;;
74959;SDS011;63518;49.572;1.106;2022-12-08T01:21:58;12.27;;;5.40;;
74959;SDS011;63518;49.572;1.106;2022-12-08T01:24:34;8.88;;;4.20;;
74959;SDS011;63518;49.572;1.106;2022-12-08T01:27:08;9.10;;;4.65;;
74959;SDS011;63518;49.572;1.106;2022-12-08T01:29:46;9.10;;;4.38;;
74959;SDS011;63518;49.572;1.106;2022-12-08T01:32:23;10.85;;;5.20;;
74959;SDS011;63518;49.572;1.106;2022-12-08T01:35:13;10.57;;;6.30;;
74959;SDS011;63518;49.572;1.106;2022-12-08T01:38:00;8.70;;;5.05;;
74959;SDS011;63518;49.572;1.106;2022-12-08T01:40:42;13.98;;;7.25;;
74959;SDS011;63518;49.572;1.106;2022-12-08T01:43:18;11.02;;;5.53;;
74959;SDS011;63518;49.572;1.106;2022-12-08T01:45:49;10.95;;;5.10;;
74959;SDS011;63518;49.572;1.106;2022-12-08T01:48:21;8.82;;;3.97;;
74959;SDS011;63518;49.572;1.106;2022-12-08T01:51:01;10.55;;;5.93;;
74959;SDS011;63518;49.572;1.106;2022-12-08T01:53:37;9.20;;;4.88;;
74959;SDS011;63518;49.572;1.106;2022-12-08T01:56:23;8.30;;;4.53;;
74959;SDS011;63518;49.572;1.106;2022-12-08T01:59:04;10.48;;;4.10;;
74959;SDS011;63518;49.572;1.106;2022-12-08T02:01:35;8.05;;;3.97;;
74959;SDS011;63518;49.572;1.106;2022-12-08T02:04:10;9.45;;;4.90;;
74959;SDS011;63518;49.572;1.106;2022-12-08T02:09:18;9.55;;;4.68;;
74959;SDS011;63518;49.572;1.106;2022-12-08T02:11:47;9.18;;;5.28;;
74959;SDS011;63518;49.572;1.106;2022-12-08T02:20:09;11.48;;;5.60;;
74959;SDS011;63518;49.572;1.106;2022-12-08T02:22:58;12.20;;;6.00;;
74959;SDS011;63518;49.572;1.106;2022-12-08T02:35:01;9.05;;;4.60;;
74959;SDS011;63518;49.572;1.106;2022-12-08T02:40:29;9.15;;;4.25;;
74959;SDS011;63518;49.572;1.106;2022-12-08T02:45:44;8.93;;;4.38;;
74959;SDS011;63518;49.572;1.106;2022-12-08T02:48:27;8.45;;;3.63;;
74959;SDS011;63518;49.572;1.106;2022-12-08T02:50:55;10.43;;;5.13;;
74959;SDS011;63518;49.572;1.106;2022-12-08T02:53:26;12.40;;;4.82;;
74959;SDS011;63518;49.572;1.106;2022-12-08T02:56:15;8.45;;;4.22;;
74959;SDS011;63518;49.572;1.106;2022-12-08T02:59:11;8.27;;;4.07;;
74959;SDS011;63518;49.572;1.106;2022-12-08T03:02:05;7.40;;;3.95;;
74959;SDS011;63518;49.572;1.106;2022-12-08T03:08:19;9.63;;;4.05;;
74959;SDS011;63518;49.572;1.106;2022-12-08T03:11:22;9.32;;;3.17;;
74959;SDS011;63518;49.572;1.106;2022-12-08T03:16:45;10.55;;;4.68;;
74959;SDS011;63518;49.572;1.106;2022-12-08T03:19:18;10.18;;;4.38;;
74959;SDS011;63518;49.572;1.106;2022-12-08T03:21:51;10.52;;;3.88;;
74959;SDS011;63518;49.572;1.106;2022-12-08T03:24:26;11.27;;;5.18;;
74959;SDS011;63518;49.572;1.106;2022-12-08T03:26:58;8.25;;;4.38;;
74959;SDS011;63518;49.572;1.106;2022-12-08T03:29:52;10.75;;;5.10;;
74959;SDS011;63518;49.572;1.106;2022-12-08T03:35:07;7.97;;;3.67;;
74959;SDS011;63518;49.572;1.106;2022-12-08T03:37:39;7.30;;;3.50;;
74959;SDS011;63518;49.572;1.106;2022-12-08T03:40:08;8.82;;;3.95;;
74959;SDS011;63518;49.572;1.106;2022-12-08T03:42:46;8.05;;;4.03;;
74959;SDS011;63518;49.572;1.106;2022-12-08T03:45:21;8.57;;;4.57;;
74959;SDS011;63518;49.572;1.106;2022-12-08T03:47:54;6.07;;;3.05;;
74959;SDS011;63518;49.572;1.106;2022-12-08T03:50:39;2.90;;;1.02;;
74959;SDS011;63518;49.572;1.106;2022-12-08T03:53:16;9.07;;;3.55;;
74959;SDS011;63518;49.572;1.106;2022-12-08T03:55:43;11.25;;;5.13;;
74959;SDS011;63518;49.572;1.106;2022-12-08T03:58:18;10.23;;;4.63;;
74959;SDS011;63518;49.572;1.106;2022-12-08T04:00:45;12.13;;;5.28;;
74959;SDS011;63518;49.572;1.106;2022-12-08T04:03:30;10.10;;;4.72;;
74959;SDS011;63518;49.572;1.106;2022-12-08T04:06:00;9.25;;;4.85;;
74959;SDS011;63518;49.572;1.106;2022-12-08T04:08:30;10.93;;;4.82;;
74959;SDS011;63518;49.572;1.106;2022-12-08T04:10:59;10.88;;;4.80;;
74959;SDS011;63518;49.572;1.106;2022-12-08T04:13:37;8.57;;;4.45;;
74959;SDS011;63518;49.572;1.106;2022-12-08T04:16:12;9.68;;;4.32;;
74959;SDS011;63518;49.572;1.106;2022-12-08T04:18:52;11.20;;;5.40;;
74959;SDS011;63518;49.572;1.106;2022-12-08T04:21:20;10.27;;;4.35;;
74959;SDS011;63518;49.572;1.106;2022-12-08T04:23:56;9.43;;;4.65;;
74959;SDS011;63518;49.572;1.106;2022-12-08T04:26:34;9.20;;;5.15;;
74959;SDS011;63518;49.572;1.106;2022-12-08T04:29:07;10.65;;;4.70;;
74959;SDS011;63518;49.572;1.106;2022-12-08T04:31:34;10.63;;;4.40;;
74959;SDS011;63518;49.572;1.106;2022-12-08T04:34:10;9.27;;;4.65;;
74959;SDS011;63518;49.572;1.106;2022-12-08T04:36:39;12.32;;;4.93;;
74959;SDS011;63518;49.572;1.106;2022-12-08T04:39:11;7.95;;;3.97;;
74959;SDS011;63518;49.572;1.106;2022-12-08T04:41:38;9.10;;;4.25;;
74959;SDS011;63518;49.572;1.106;2022-12-08T04:44:08;8.05;;;4.55;;
74959;SDS011;63518;49.572;1.106;2022-12-08T04:46:35;12.60;;;5.95;;
74959;SDS011;63518;49.572;1.106;2022-12-08T04:49:10;9.48;;;4.60;;
74959;SDS011;63518;49.572;1.106;2022-12-08T04:51:37;15.38;;;6.47;;
74959;SDS011;63518;49.572;1.106;2022-12-08T04:54:04;12.70;;;5.50;;
74959;SDS011;63518;49.572;1.106;2022-12-08T04:56:34;12.30;;;4.80;;
74959;SDS011;63518;49.572;1.106;2022-12-08T04:59:01;10.65;;;5.25;;
74959;SDS011;63518;49.572;1.106;2022-12-08T05:01:32;12.23;;;6.85;;
74959;SDS011;63518;49.572;1.106;2022-12-08T05:06:33;11.82;;;5.80;;
74959;SDS011;63518;49.572;1.106;2022-12-08T05:09:11;13.30;;;6.00;;
74959;SDS011;63518;49.572;1.106;2022-12-08T05:11:41;12.07;;;4.45;;
74959;SDS011;63518;49.572;1.106;2022-12-08T05:14:15;8.80;;;5.15;;
74959;SDS011;63518;49.572;1.106;2022-12-08T05:16:47;10.07;;;4.75;;
74959;SDS011;63518;49.572;1.106;2022-12-08T05:19:19;10.15;;;6.13;;
74959;SDS011;63518;49.572;1.106;2022-12-08T05:21:49;10.70;;;5.20;;
74959;SDS011;63518;49.572;1.106;2022-12-08T05:24:22;9.30;;;4.70;;
74959;SDS011;63518;49.572;1.106;2022-12-08T05:26:53;8.60;;;4.10;;
74959;SDS011;63518;49.572;1.106;2022-12-08T05:29:23;12.38;;;5.65;;
74959;SDS011;63518;49.572;1.106;2022-12-08T05:31:53;10.65;;;4.97;;
74959;SDS011;63518;49.572;1.106;2022-12-08T05:34:24;9.60;;;5.15;;
74959;SDS011;63518;49.572;1.106;2022-12-08T05:36:51;9.77;;;4.38;;
74959;SDS011;63518;49.572;1.106;2022-12-08T05:39:21;9.75;;;4.82;;
74959;SDS011;63518;49.572;1.106;2022-12-08T05:41:52;11.23;;;4.72;;
74959;SDS011;63518;49.572;1.106;2022-12-08T05:44:40;10.57;;;5.38;;
74959;SDS011;63518;49.572;1.106;2022-12-08T05:47:07;11.40;;;4.97;;
74959;SDS011;63518;49.572;1.106;2022-12-08T05:49:34;9.25;;;4.68;;
74959;SDS011;63518;49.572;1.106;2022-12-08T05:52:04;12.70;;;5.75;;
74959;SDS011;63518;49.572;1.106;2022-12-08T05:54:42;11.63;;;5.50;;
74959;SDS011;63518;49.572;1.106;2022-12-08T05:57:09;11.88;;;6.28;;
74959;SDS011;63518;49.572;1.106;2022-12-08T05:59:40;13.73;;;5.82;;
74959;SDS011;63518;49.572;1.106;2022-12-08T06:02:07;7.63;;;3.47;;
74959;SDS011;63518;49.572;1.106;2022-12-08T06:04:55;4.68;;;1.98;;
74959;SDS011;63518;49.572;1.106;2022-12-08T06:07:26;5.43;;;2.78;;
74959;SDS011;63518;49.572;1.106;2022-12-08T06:12:29;4.55;;;1.70;;
74959;SDS011;63518;49.572;1.106;2022-12-08T06:14:56;6.38;;;3.20;;
74959;SDS011;63518;49.572;1.106;2022-12-08T06:17:23;5.63;;;2.50;;
74959;SDS011;63518;49.572;1.106;2022-12-08T06:19:55;8.43;;;4.15;;
74959;SDS011;63518;49.572;1.106;2022-12-08T06:22:28;6.55;;;2.83;;
74959;SDS011;63518;49.572;1.106;2022-12-08T06:25:01;8.85;;;4.28;;
74959;SDS011;63518;49.572;1.106;2022-12-08T06:27:44;27.73;;;12.57;;
74959;SDS011;63518;49.572;1.106;2022-12-08T06:30:13;22.42;;;11.10;;
74959;SDS011;63518;49.572;1.106;2022-12-08T06:33:04;15.32;;;8.10;;
74959;SDS011;63518;49.572;1.106;2022-12-08T06:35:39;27.48;;;12.02;;
74959;SDS011;63518;49.572;1.106;2022-12-08T06:38:36;21.88;;;9.55;;
74959;SDS011;63518;49.572;1.106;2022-12-08T06:41:09;21.35;;;9.73;;
74959;SDS011;63518;49.572;1.106;2022-12-08T06:43:38;25.40;;;10.55;;
74959;SDS011;63518;49.572;1.106;2022-12-08T06:46:06;15.38;;;7.43;;
74959;SDS011;63518;49.572;1.106;2022-12-08T06:48:38;13.27;;;6.82;;
74959;SDS011;63518;49.572;1.106;2022-12-08T06:53:35;10.73;;;6.40;;
74959;SDS011;63518;49.572;1.106;2022-12-08T06:56:13;16.55;;;6.82;;
74959;SDS011;63518;49.572;1.106;2022-12-08T06:58:55;18.55;;;7.25;;
74959;SDS011;63518;49.572;1.106;2022-12-08T07:01:28;12.90;;;6.57;;
74959;SDS011;63518;49.572;1.106;2022-12-08T07:04:07;13.32;;;6.72;;
74959;SDS011;63518;49.572;1.106;2022-12-08T07:06:44;14.00;;;7.63;;
74959;SDS011;63518;49.572;1.106;2022-12-08T07:09:17;14.30;;;5.93;;
74959;SDS011;63518;49.572;1.106;2022-12-08T07:11:46;17.15;;;7.40;;
74959;SDS011;63518;49.572;1.106;2022-12-08T07:14:17;11.55;;;5.90;;
74959;SDS011;63518;49.572;1.106;2022-12-08T07:16:59;16.20;;;6.40;;
74959;SDS011;63518;49.572;1.106;2022-12-08T07:19:32;33.60;;;15.20;;
74959;SDS011;63518;49.572;1.106;2022-12-08T07:22:10;34.58;;;17.85;;
74959;SDS011;63518;49.572;1.106;2022-12-08T07:24:55;29.92;;;14.75;;
74959;SDS011;63518;49.572;1.106;2022-12-08T07:27:24;26.35;;;13.73;;
74959;SDS011;63518;49.572;1.106;2022-12-08T07:29:54;27.13;;;12.02;;
74959;SDS011;63518;49.572;1.106;2022-12-08T07:32:24;23.75;;;12.05;;
74959;SDS011;63518;49.572;1.106;2022-12-08T07:35:07;22.65;;;12.48;;
74959;SDS011;63518;49.572;1.106;2022-12-08T07:37:57;6.25;;;3.35;;
74959;SDS011;63518;49.572;1.106;2022-12-08T07:40:30;9.43;;;5.18;;
74959;SDS011;63518;49.572;1.106;2022-12-08T07:42:59;10.90;;;4.80;;
74959;SDS011;63518;49.572;1.106;2022-12-08T07:45:32;37.88;;;19.42;;
74959;SDS011;63518;49.572;1.106;2022-12-08T07:48:25;12.73;;;7.07;;
74959;SDS011;63518;49.572;1.106;2022-12-08T07:50:59;18.02;;;8.20;;
74959;SDS011;63518;49.572;1.106;2022-12-08T07:53:55;15.60;;;8.15;;
74959;SDS011;63518;49.572;1.106;2022-12-08T07:56:39;14.90;;;7.00;;
74959;SDS011;63518;49.572;1.106;2022-12-08T07:59:13;22.30;;;11.95;;
74959;SDS011;63518;49.572;1.106;2022-12-08T08:01:41;23.70;;;9.30;;
74959;SDS011;63518;49.572;1.106;2022-12-08T08:04:36;28.13;;;12.30;;
74959;SDS011;63518;49.572;1.106;2022-12-08T08:07:19;37.47;;;16.33;;
74959;SDS011;63518;49.572;1.106;2022-12-08T08:09:54;14.48;;;7.18;;
74959;SDS011;63518;49.572;1.106;2022-12-08T08:12:24;36.80;;;16.50;;
74959;SDS011;63518;49.572;1.106;2022-12-08T08:15:16;16.85;;;8.25;;
74959;SDS011;63518;49.572;1.106;2022-12-08T08:20:20;26.40;;;14.07;;
74959;SDS011;63518;49.572;1.106;2022-12-08T08:22:59;22.17;;;11.40;;
74959;SDS011;63518;49.572;1.106;2022-12-08T08:25:29;20.33;;;9.10;;
74959;SDS011;63518;49.572;1.106;2022-12-08T08:28:04;17.27;;;9.27;;
74959;SDS011;63518;49.572;1.106;2022-12-08T08:30:31;21.02;;;10.82;;
74959;SDS011;63518;49.572;1.106;2022-12-08T08:33:32;17.92;;;9.45;;
74959;SDS011;63518;49.572;1.106;2022-12-08T08:36:09;14.23;;;6.65;;
74959;SDS011;63518;49.572;1.106;2022-12-08T08:38:53;14.98;;;7.10;;
74959;SDS011;63518;49.572;1.106;2022-12-08T08:41:25;9.38;;;4.90;;
74959;SDS011;63518;49.572;1.106;2022-12-08T08:43:56;18.67;;;8.60;;
74959;SDS011;63518;49.572;1.106;2022-12-08T08:46:33;17.45;;;7.43;;
74959;SDS011;63518;49.572;1.106;2022-12-08T08:49:09;12.05;;;5.82;;
74959;SDS011;63518;49.572;1.106;2022-12-08T08:51:39;32.28;;;15.73;;
74959;SDS011;63518;49.572;1.106;2022-12-08T08:54:11;14.32;;;6.30;;
74959;SDS011;63518;49.572;1.106;2022-12-08T08:56:39;14.70;;;7.32;;
74959;SDS011;63518;49.572;1.106;2022-12-08T08:59:30;38.53;;;24.65;;
74959;SDS011;63518;49.572;1.106;2022-12-08T09:01:57;29.83;;;20.17;;
74959;SDS011;63518;49.572;1.106;2022-12-08T09:04:52;17.92;;;9.07;;
74959;SDS011;63518;49.572;1.106;2022-12-08T09:07:45;18.88;;;10.02;;
74959;SDS011;63518;49.572;1.106;2022-12-08T09:10:14;19.98;;;9.35;;
74959;SDS011;63518;49.572;1.106;2022-12-08T09:13:23;26.92;;;14.68;;
74959;SDS011;63518;49.572;1.106;2022-12-08T09:16:07;34.20;;;21.58;;
74959;SDS011;63518;49.572;1.106;2022-12-08T09:18:44;22.00;;;12.15;;
74959;SDS011;63518;49.572;1.106;2022-12-08T09:21:15;22.70;;;12.02;;
74959;SDS011;63518;49.572;1.106;2022-12-08T09:24:08;14.10;;;7.53;;
74959;SDS011;63518;49.572;1.106;2022-12-08T09:26:43;16.30;;;6.82;;
74959;SDS011;63518;49.572;1.106;2022-12-08T09:29:16;20.98;;;10.63;;
74959;SDS011;63518;49.572;1.106;2022-12-08T09:31:44;19.45;;;9.48;;
74959;SDS011;63518;49.572;1.106;2022-12-08T09:34:28;18.90;;;8.05;;
74959;SDS011;63518;49.572;1.106;2022-12-08T09:37:04;15.35;;;8.25;;
74959;SDS011;63518;49.572;1.106;2022-12-08T09:39:50;21.10;;;8.23;;
74959;SDS011;63518;49.572;1.106;2022-12-08T09:42:48;19.33;;;7.72;;
74959;SDS011;63518;49.572;1.106;2022-12-08T09:45:45;17.13;;;8.30;;
74959;SDS011;63518;49.572;1.106;2022-12-08T09:48:49;14.07;;;6.03;;
74959;SDS011;63518;49.572;1.106;2022-12-08T09:51:29;15.10;;;6.97;;
74959;SDS011;63518;49.572;1.106;2022-12-08T09:57:29;20.77;;;7.43;;
74959;SDS011;63518;49.572;1.106;2022-12-08T10:00:31;20.70;;;8.80;;
74959;SDS011;63518;49.572;1.106;2022-12-08T10:04:08;21.52;;;7.80;;
74959;SDS011;63518;49.572;1.106;2022-12-08T10:13:35;17.83;;;7.28;;
74959;SDS011;63518;49.572;1.106;2022-12-08T10:16:24;15.90;;;7.10;;
74959;SDS011;63518;49.572;1.106;2022-12-08T10:19:29;21.95;;;8.18;;
74959;SDS011;63518;49.572;1.106;2022-12-08T10:22:19;16.52;;;7.07;;
74959;SDS011;63518;49.572;1.106;2022-12-08T10:25:32;21.58;;;8.55;;
74959;SDS011;63518;49.572;1.106;2022-12-08T10:28:37;21.00;;;7.45;;
74959;SDS011;63518;49.572;1.106;2022-12-08T10:31:28;24.52;;;9.10;;
74959;SDS011;63518;49.572;1.106;2022-12-08T10:38:41;19.92;;;7.78;;
74959;SDS011;63518;49.572;1.106;2022-12-08T10:41:13;19.63;;;7.30;;
74959;SDS011;63518;49.572;1.106;2022-12-08T10:44:04;20.63;;;7.45;;
74959;SDS011;63518;49.572;1.106;2022-12-08T10:46:35;23.02;;;8.57;;
74959;SDS011;63518;49.572;1.106;2022-12-08T10:49:29;24.00;;;9.55;;
74959;SDS011;63518;49.572;1.106;2022-12-08T10:51:58;21.90;;;8.77;;
74959;SDS011;63518;49.572;1.106;2022-12-08T10:54:52;19.17;;;7.22;;
74959;SDS011;63518;49.572;1.106;2022-12-08T10:57:24;18.27;;;7.97;;
74959;SDS011;63518;49.572;1.106;2022-12-08T10:59:55;18.05;;;7.13;;
74959;SDS011;63518;49.572;1.106;2022-12-08T11:02:24;25.25;;;9.73;;
74959;SDS011;63518;49.572;1.106;2022-12-08T11:05:26;18.75;;;6.85;;
74959;SDS011;63518;49.572;1.106;2022-12-08T11:08:24;16.27;;;5.65;;
74959;SDS011;63518;49.572;1.106;2022-12-08T11:11:01;16.92;;;6.30;;
74959;SDS011;63518;49.572;1.106;2022-12-08T11:13:58;16.63;;;7.10;;
74959;SDS011;63518;49.572;1.106;2022-12-08T11:16:43;12.85;;;4.72;;
74959;SDS011;63518;49.572;1.106;2022-12-08T11:19:31;15.63;;;6.25;;
74959;SDS011;63518;49.572;1.106;2022-12-08T11:25:24;14.07;;;4.95;;
74959;SDS011;63518;49.572;1.106;2022-12-08T11:28:22;19.42;;;6.85;;
74959;SDS011;63518;49.572;1.106;2022-12-08T11:30:59;17.67;;;6.75;;
74959;SDS011;63518;49.572;1.106;2022-12-08T11:33:43;17.17;;;6.07;;
74959;SDS011;63518;49.572;1.106;2022-12-08T11:36:26;21.85;;;8.18;;
74959;SDS011;63518;49.572;1.106;2022-12-08T11:39:24;25.45;;;8.18;;
74959;SDS011;63518;49.572;1.106;2022-12-08T11:42:09;24.65;;;8.95;;
74959;SDS011;63518;49.572;1.106;2022-12-08T11:45:00;22.17;;;7.60;;
74959;SDS011;63518;49.572;1.106;2022-12-08T11:48:34;23.88;;;8.45;;
74959;SDS011;63518;49.572;1.106;2022-12-08T11:51:15;22.63;;;8.27;;
74959;SDS011;63518;49.572;1.106;2022-12-08T11:54:15;16.13;;;6.70;;
74959;SDS011;63518;49.572;1.106;2022-12-08T11:56:55;18.67;;;7.40;;
74959;SDS011;63518;49.572;1.106;2022-12-08T11:59:55;17.33;;;5.65;;
74959;SDS011;63518;49.572;1.106;2022-12-08T12:02:25;15.45;;;5.35;;
74959;SDS011;63518;49.572;1.106;2022-12-08T12:11:19;18.02;;;7.47;;
74959;SDS011;63518;49.572;1.106;2022-12-08T12:18:02;14.90;;;5.65;;
74959;SDS011;63518;49.572;1.106;2022-12-08T12:21:13;14.15;;;4.72;;
74959;SDS011;63518;49.572;1.106;2022-12-08T12:24:32;15.85;;;5.60;;
74959;SDS011;63518;49.572;1.106;2022-12-08T12:30:07;15.93;;;4.88;;
74959;SDS011;63518;49.572;1.106;2022-12-08T12:33:02;15.70;;;6.22;;
74959;SDS011;63518;49.572;1.106;2022-12-08T12:39:05;11.05;;;4.65;;
74959;SDS011;63518;49.572;1.106;2022-12-08T12:41:47;10.95;;;3.95;;
74959;SDS011;63518;49.572;1.106;2022-12-08T12:47:07;12.23;;;4.38;;
74959;SDS011;63518;49.572;1.106;2022-12-08T12:50:11;14.52;;;5.03;;
74959;SDS011;63518;49.572;1.106;2022-12-08T12:56:05;8.98;;;3.67;;
74959;SDS011;63518;49.572;1.106;2022-12-08T12:58:58;10.73;;;4.15;;
74959;SDS011;63518;49.572;1.106;2022-12-08T13:05:27;9.73;;;3.85;;
74959;SDS011;63518;49.572;1.106;2022-12-08T13:08:05;13.73;;;4.13;;
74959;SDS011;63518;49.572;1.106;2022-12-08T13:10:55;10.70;;;4.38;;
74959;SDS011;63518;49.572;1.106;2022-12-08T13:14:15;12.85;;;4.05;;
74959;SDS011;63518;49.572;1.106;2022-12-08T13:17:11;12.73;;;5.90;;
74959;SDS011;63518;49.572;1.106;2022-12-08T13:19:57;18.98;;;8.13;;
74959;SDS011;63518;49.572;1.106;2022-12-08T13:25:56;13.57;;;5.88;;
74959;SDS011;63518;49.572;1.106;2022-12-08T13:29:12;12.05;;;4.72;;
74959;SDS011;63518;49.572;1.106;2022-12-08T13:31:56;15.25;;;6.60;;
74959;SDS011;63518;49.572;1.106;2022-12-08T13:34:59;10.13;;;4.88;;
74959;SDS011;63518;49.572;1.106;2022-12-08T13:37:46;8.73;;;4.43;;
74959;SDS011;63518;49.572;1.106;2022-12-08T13:40:24;12.07;;;4.75;;
74959;SDS011;63518;49.572;1.106;2022-12-08T13:43:25;12.02;;;4.40;;
74959;SDS011;63518;49.572;1.106;2022-12-08T13:50:16;11.43;;;3.88;;
74959;SDS011;63518;49.572;1.106;2022-12-08T13:53:32;11.73;;;5.38;;
74959;SDS011;63518;49.572;1.106;2022-12-08T13:56:33;18.45;;;5.13;;
74959;SDS011;63518;49.572;1.106;2022-12-08T13:59:42;11.00;;;4.65;;
74959;SDS011;63518;49.572;1.106;2022-12-08T14:02:25;11.27;;;4.70;;
74959;SDS011;63518;49.572;1.106;2022-12-08T14:05:11;11.75;;;5.22;;
74959;SDS011;63518;49.572;1.106;2022-12-08T14:08:18;16.60;;;5.70;;
74959;SDS011;63518;49.572;1.106;2022-12-08T14:11:33;15.35;;;6.72;;
74959;SDS011;63518;49.572;1.106;2022-12-08T14:17:20;17.27;;;6.70;;
74959;SDS011;63518;49.572;1.106;2022-12-08T15:42:01;11.32;;;4.40;;
74959;SDS011;63518;49.572;1.106;2022-12-08T15:44:40;13.63;;;5.43;;
74959;SDS011;63518;49.572;1.106;2022-12-08T15:47:20;14.82;;;5.70;;
74959;SDS011;63518;49.572;1.106;2022-12-08T15:49:52;18.23;;;6.47;;
74959;SDS011;63518;49.572;1.106;2022-12-08T15:52:25;13.70;;;5.15;;
74959;SDS011;63518;49.572;1.106;2022-12-08T15:55:12;14.43;;;6.45;;
74959;SDS011;63518;49.572;1.106;2022-12-08T15:57:51;19.00;;;7.20;;
74959;SDS011;63518;49.572;1.106;2022-12-08T16:00:58;17.95;;;5.82;;
74959;SDS011;63518;49.572;1.106;2022-12-08T16:03:41;11.25;;;4.18;;
74959;SDS011;63518;49.572;1.106;2022-12-08T16:06:38;13.13;;;5.20;;
74959;SDS011;63518;49.572;1.106;2022-12-08T16:09:28;15.27;;;5.90;;
74959;SDS011;63518;49.572;1.106;2022-12-08T16:12:09;13.63;;;5.40;;
74959;SDS011;63518;49.572;1.106;2022-12-08T16:15:23;15.50;;;6.20;;
74959;SDS011;63518;49.572;1.106;2022-12-08T16:18:37;12.30;;;4.40;;
74959;SDS011;63518;49.572;1.106;2022-12-08T16:21:08;12.55;;;4.75;;
74959;SDS011;63518;49.572;1.106;2022-12-08T16:24:06;9.63;;;4.95;;
74959;SDS011;63518;49.572;1.106;2022-12-08T16:26:37;13.38;;;5.00;;
74959;SDS011;63518;49.572;1.106;2022-12-08T16:29:40;17.05;;;6.43;;
74959;SDS011;63518;49.572;1.106;2022-12-08T16:32:15;17.02;;;5.90;;
74959;SDS011;63518;49.572;1.106;2022-12-08T16:34:57;11.68;;;5.20;;
74959;SDS011;63518;49.572;1.106;2022-12-08T16:37:26;19.98;;;7.85;;
74959;SDS011;63518;49.572;1.106;2022-12-08T16:39:56;22.88;;;6.88;;
74959;SDS011;63518;49.572;1.106;2022-12-08T16:42:26;15.63;;;6.35;;
74959;SDS011;63518;49.572;1.106;2022-12-08T16:45:20;13.05;;;6.43;;
74959;SDS011;63518;49.572;1.106;2022-12-08T16:50:29;16.73;;;6.88;;
74959;SDS011;63518;49.572;1.106;2022-12-08T16:53:05;12.80;;;5.97;;
74959;SDS011;63518;49.572;1.106;2022-12-08T16:55:43;18.60;;;6.22;;
74959;SDS011;63518;49.572;1.106;2022-12-08T16:58:32;16.90;;;7.90;;
74959;SDS011;63518;49.572;1.106;2022-12-08T17:01:01;18.20;;;8.20;;
74959;SDS011;63518;49.572;1.106;2022-12-08T17:03:42;16.83;;;8.43;;
74959;SDS011;63518;49.572;1.106;2022-12-08T17:06:30;16.58;;;9.05;;
74959;SDS011;63518;49.572;1.106;2022-12-08T17:09:01;18.60;;;8.32;;
74959;SDS011;63518;49.572;1.106;2022-12-08T17:11:37;20.65;;;8.98;;
74959;SDS011;63518;49.572;1.106;2022-12-08T17:14:22;22.58;;;9.18;;
74959;SDS011;63518;49.572;1.106;2022-12-08T17:16:57;21.67;;;8.77;;
74959;SDS011;63518;49.572;1.106;2022-12-08T17:19:26;17.48;;;8.20;;
74959;SDS011;63518;49.572;1.106;2022-12-08T17:21:56;20.33;;;7.80;;
74959;SDS011;63518;49.572;1.106;2022-12-08T17:24:32;10.98;;;6.05;;
74959;SDS011;63518;49.572;1.106;2022-12-08T17:27:05;15.70;;;6.60;;
74959;SDS011;63518;49.572;1.106;2022-12-08T17:33:17;15.68;;;6.25;;
74959;SDS011;63518;49.572;1.106;2022-12-08T17:36:00;14.57;;;5.47;;
74959;SDS011;63518;49.572;1.106;2022-12-08T17:38:42;17.83;;;6.07;;
74959;SDS011;63518;49.572;1.106;2022-12-08T17:41:17;14.73;;;6.47;;
74959;SDS011;63518;49.572;1.106;2022-12-08T17:43:51;15.02;;;7.10;;
74959;SDS011;63518;49.572;1.106;2022-12-08T17:46:21;16.40;;;6.55;;
74959;SDS011;63518;49.572;1.106;2022-12-08T17:51:15;18.52;;;7.25;;
74959;SDS011;63518;49.572;1.106;2022-12-08T17:54:06;17.02;;;6.88;;
74959;SDS011;63518;49.572;1.106;2022-12-08T17:56:36;17.60;;;7.07;;
74959;SDS011;63518;49.572;1.106;2022-12-08T17:59:03;17.75;;;7.22;;
74959;SDS011;63518;49.572;1.106;2022-12-08T18:01:32;14.70;;;6.38;;
74959;SDS011;63518;49.572;1.106;2022-12-08T18:04:09;13.85;;;5.80;;
74959;SDS011;63518;49.572;1.106;2022-12-08T18:06:40;18.05;;;6.53;;
74959;SDS011;63518;49.572;1.106;2022-12-08T18:09:17;11.75;;;5.78;;
74959;SDS011;63518;49.572;1.106;2022-12-08T18:12:09;16.60;;;7.32;;
74959;SDS011;63518;49.572;1.106;2022-12-08T18:14:52;21.25;;;8.48;;
74959;SDS011;63518;49.572;1.106;2022-12-08T18:17:22;18.63;;;7.60;;
74959;SDS011;63518;49.572;1.106;2022-12-08T18:19:53;22.27;;;8.30;;
74959;SDS011;63518;49.572;1.106;2022-12-08T18:22:25;17.75;;;5.95;;
74959;SDS011;63518;49.572;1.106;2022-12-08T18:24:58;18.92;;;7.70;;
74959;SDS011;63518;49.572;1.106;2022-12-08T18:27:33;16.55;;;7.03;;
74959;SDS011;63518;49.572;1.106;2022-12-08T18:30:14;17.63;;;7.63;;
74959;SDS011;63518;49.572;1.106;2022-12-08T18:32:55;16.25;;;6.65;;
74959;SDS011;63518;49.572;1.106;2022-12-08T18:35:33;17.02;;;7.13;;
74959;SDS011;63518;49.572;1.106;2022-12-08T18:40:37;14.88;;;6.13;;
74959;SDS011;63518;49.572;1.106;2022-12-08T18:43:16;12.93;;;5.57;;
74959;SDS011;63518;49.572;1.106;2022-12-08T18:46:04;17.50;;;7.57;;
74959;SDS011;63518;49.572;1.106;2022-12-08T18:48:50;20.13;;;7.80;;
74959;SDS011;63518;49.572;1.106;2022-12-08T18:51:36;24.42;;;10.20;;
74959;SDS011;63518;49.572;1.106;2022-12-08T18:54:03;17.15;;;7.10;;
74959;SDS011;63518;49.572;1.106;2022-12-08T18:56:33;21.70;;;9.43;;
74959;SDS011;63518;49.572;1.106;2022-12-08T18:59:30;16.80;;;6.57;;
74959;SDS011;63518;49.572;1.106;2022-12-08T19:02:26;18.83;;;8.25;;
74959;SDS011;63518;49.572;1.106;2022-12-08T19:05:11;18.80;;;6.85;;